Time;durP1;ratioP1;P1;durP2;ratioP2;P2;SDS_P1;SDS_P2;PMS_P1;PMS_P2;Temp;Humidity;BMP_temperature;BMP_pressure;BME280_temperature;BME280_humidity;BME280_pressure;Samples;Min_cycle;Max_cycle;Signal;HPM_P1;HPM_P2
2023/11/23 00:01:34;;;;;;;2.45;1.50;;;-1.30;99.90;;;;;;6194649;23;20150;-86
2023/11/23 00:04:03;;;;;;;4.32;4.13;;;-1.20;99.90;;;;;;6172632;23;20326;-84
2023/11/23 00:06:32;;;;;;;5.57;5.18;;;-1.20;99.90;;;;;;6199474;23;20196;-85
2023/11/23 00:09:00;;;;;;;4.78;4.53;;;-1.30;99.90;;;;;;6198015;23;20181;-86
2023/11/23 00:11:27;;;;;;;3.15;2.95;;;-1.30;99.90;;;;;;6195992;23;20189;-85
2023/11/23 00:13:54;;;;;;;6.55;5.97;;;-1.40;99.90;;;;;;6195789;23;20252;-86
2023/11/23 00:16:21;;;;;;;4.88;4.40;;;-1.30;99.90;;;;;;6168269;23;20241;-88
2023/11/23 00:18:48;;;;;;;12.10;3.00;;;-1.40;99.90;;;;;;6191983;23;20230;-86
2023/11/23 00:21:15;;;;;;;3.38;3.20;;;-1.40;99.90;;;;;;6193313;23;20199;-85
2023/11/23 00:23:43;;;;;;;4.45;4.03;;;-1.40;99.90;;;;;;6194130;23;20177;-86
2023/11/23 00:26:13;;;;;;;4.40;4.20;;;-1.40;99.90;;;;;;6202512;23;20228;-81
2023/11/23 00:28:44;;;;;;;4.70;4.50;;;-1.40;99.90;;;;;;6199023;23;20165;-83
2023/11/23 00:31:11;;;;;;;2.45;2.35;;;-1.30;99.90;;;;;;6189802;23;20296;-83
2023/11/23 00:33:38;;;;;;;7.50;6.22;;;-1.30;99.90;;;;;;6189844;23;20201;-84
2023/11/23 00:36:06;;;;;;;5.07;4.68;;;-1.30;99.90;;;;;;6193651;23;20183;-86
2023/11/23 00:38:42;;;;;;;4.18;3.85;;;-1.20;99.90;;;;;;6196621;23;20176;-84
2023/11/23 00:41:09;;;;;;;4.60;4.40;;;-1.30;99.90;;;;;;6190919;23;20181;-84
2023/11/23 00:43:36;;;;;;;4.65;4.30;;;-1.30;99.90;;;;;;6189848;23;20184;-85
2023/11/23 00:46:03;;;;;;;6.95;5.82;;;-1.30;99.90;;;;;;6189488;23;20185;-85
2023/11/23 00:48:31;;;;;;;6.22;5.85;;;-1.40;99.90;;;;;;6190317;23;20216;-84
2023/11/23 00:50:58;;;;;;;6.18;5.30;;;-1.30;99.90;;;;;;6192266;23;20223;-82
2023/11/23 00:53:25;;;;;;;5.40;5.10;;;-1.30;99.90;;;;;;6194864;23;20543;-84
2023/11/23 00:55:56;;;;;;;3.75;3.55;;;-1.40;99.90;;;;;;6194614;23;20715;-84
2023/11/23 00:58:24;;;;;;;3.67;3.47;;;-1.40;99.90;;;;;;6191959;23;20188;-83
2023/11/23 01:00:53;;;;;;;4.60;4.38;;;-1.40;99.90;;;;;;6165334;23;20187;-82
2023/11/23 01:03:19;;;;;;;7.78;3.40;;;-1.40;99.90;;;;;;6193129;23;20204;-84
2023/11/23 01:05:47;;;;;;;8.02;3.25;;;-1.30;99.90;;;;;;6190818;23;20173;-82
2023/11/23 01:08:14;;;;;;;5.60;3.42;;;-1.30;99.90;;;;;;6192778;23;20204;-82
2023/11/23 01:10:41;;;;;;;5.32;4.90;;;-1.30;99.90;;;;;;6193339;23;20179;-83
2023/11/23 01:13:09;;;;;;;4.30;4.00;;;-1.30;99.90;;;;;;6192835;23;20177;-82
2023/11/23 01:15:36;;;;;;;8.32;4.78;;;-1.30;99.90;;;;;;6191950;23;20263;-82
2023/11/23 01:18:04;;;;;;;7.72;7.10;;;-1.30;99.90;;;;;;6194211;23;20188;-82
2023/11/23 01:20:32;;;;;;;3.03;2.47;;;-1.20;99.90;;;;;;6195150;23;20246;-82
2023/11/23 01:22:59;;;;;;;12.25;4.43;;;-1.20;99.90;;;;;;6193661;23;20181;-81
2023/11/23 01:25:26;;;;;;;5.55;5.25;;;-1.20;99.90;;;;;;6191764;23;20184;-83
2023/11/23 01:27:55;;;;;;;3.45;2.47;;;-1.20;99.90;;;;;;6190040;23;20406;-85
2023/11/23 01:30:21;;;;;;;4.63;4.18;;;-1.10;99.90;;;;;;6189755;23;20185;-84
2023/11/23 01:32:49;;;;;;;3.38;3.28;;;-1.20;99.90;;;;;;6189814;23;20244;-84
2023/11/23 01:35:17;;;;;;;4.68;4.40;;;-1.20;99.90;;;;;;6196257;23;20236;-83
2023/11/23 01:37:44;;;;;;;4.25;4.03;;;-1.20;99.90;;;;;;6197099;23;20177;-82
2023/11/23 01:40:11;;;;;;;4.30;4.07;;;-1.20;99.90;;;;;;6197061;23;20488;-84
2023/11/23 01:42:38;;;;;;;7.75;5.13;;;-1.30;99.90;;;;;;6192504;23;20177;-82
2023/11/23 01:45:06;;;;;;;5.10;4.43;;;-1.20;99.90;;;;;;6190852;23;20209;-83
2023/11/23 01:47:38;;;;;;;3.45;3.25;;;-1.20;99.90;;;;;;6190815;23;20184;-82
2023/11/23 01:50:07;;;;;;;7.47;6.50;;;-1.20;99.90;;;;;;6190929;23;20197;-82
2023/11/23 01:52:35;;;;;;;4.13;3.45;;;-1.20;99.90;;;;;;6189694;23;20185;-84
2023/11/23 01:55:05;;;;;;;4.88;4.53;;;-1.10;99.90;;;;;;6188743;23;20263;-82
2023/11/23 01:57:37;;;;;;;6.70;6.15;;;-1.20;99.90;;;;;;6188313;23;20405;-80
2023/11/23 02:00:05;;;;;;;5.43;4.95;;;-1.20;99.90;;;;;;6189776;23;20193;-80
2023/11/23 02:02:32;;;;;;;2.97;2.72;;;-1.20;99.90;;;;;;6202158;23;20241;-82
2023/11/23 02:05:05;;;;;;;4.35;4.15;;;-1.20;99.90;;;;;;6212795;23;20165;-83
2023/11/23 02:07:35;;;;;;;5.18;4.80;;;-1.30;99.90;;;;;;6211966;23;20158;-80
2023/11/23 02:10:06;;;;;;;8.10;6.88;;;-1.20;99.90;;;;;;6209364;23;20229;-80
2023/11/23 02:12:33;;;;;;;6.47;6.00;;;-1.20;99.90;;;;;;6197613;23;20540;-81
2023/11/23 02:15:02;;;;;;;3.72;3.53;;;-1.10;99.90;;;;;;6189878;23;20296;-82
2023/11/23 02:17:30;;;;;;;7.43;6.70;;;-1.20;99.90;;;;;;6163672;23;20239;-83
2023/11/23 02:19:58;;;;;;;7.68;6.93;;;-1.20;99.90;;;;;;6191437;23;20204;-82
2023/11/23 02:22:29;;;;;;;3.20;3.00;;;-1.20;99.90;;;;;;6173506;23;20176;-82
2023/11/23 02:24:56;;;;;;;2.85;2.75;;;-1.20;99.90;;;;;;6200024;23;20188;-83
2023/11/23 02:27:23;;;;;;;7.43;6.93;;;-1.30;99.90;;;;;;6161409;23;20185;-81
2023/11/23 02:29:50;;;;;;;6.32;4.25;;;-1.20;99.90;;;;;;6187589;23;20253;-82
2023/11/23 02:32:17;;;;;;;4.40;4.00;;;-1.20;99.90;;;;;;6188425;23;20184;-81
2023/11/23 02:34:47;;;;;;;5.55;5.30;;;-1.20;99.90;;;;;;6167990;23;20396;-86
2023/11/23 02:37:13;;;;;;;2.55;2.38;;;-1.10;99.90;;;;;;6195273;23;20208;-84
2023/11/23 02:39:43;;;;;;;3.17;2.97;;;-1.10;99.90;;;;;;6189622;23;20759;-87
2023/11/23 02:42:10;;;;;;;3.58;3.30;;;-1.10;99.90;;;;;;6188296;23;20205;-80
2023/11/23 02:44:37;;;;;;;2.72;2.63;;;-1.00;99.90;;;;;;6187622;23;20589;-83
2023/11/23 02:47:04;;;;;;;6.38;5.75;;;-1.00;99.90;;;;;;6187901;23;20248;-83
2023/11/23 02:49:31;;;;;;;4.13;3.85;;;-0.90;99.90;;;;;;6188182;23;20185;-81
2023/11/23 02:51:58;;;;;;;3.47;3.22;;;-0.90;99.90;;;;;;6186894;23;20650;-80
2023/11/23 02:54:28;;;;;;;20.05;8.32;;;-0.80;99.90;;;;;;6187138;23;20200;-81
2023/11/23 02:56:54;;;;;;;10.45;5.32;;;-0.80;99.90;;;;;;6187187;23;20224;-84
2023/11/23 02:59:22;;;;;;;3.35;3.05;;;-0.80;99.90;;;;;;6187493;23;20179;-82
2023/11/23 03:01:49;;;;;;;3.95;3.65;;;-0.70;99.90;;;;;;6161460;23;20241;-82
2023/11/23 03:04:16;;;;;;;2.90;2.80;;;-0.60;99.90;;;;;;6186910;23;20192;-82
2023/11/23 03:06:43;;;;;;;3.42;3.22;;;-0.60;99.90;;;;;;6186249;23;20185;-82
2023/11/23 03:09:10;;;;;;;2.30;2.20;;;-0.50;99.90;;;;;;6187240;23;20219;-81
2023/11/23 03:11:37;;;;;;;3.28;3.08;;;-0.50;99.90;;;;;;6186715;23;20386;-84
2023/11/23 03:14:05;;;;;;;5.10;4.03;;;-0.50;99.90;;;;;;6187440;23;20269;-83
2023/11/23 03:16:33;;;;;;;15.25;7.35;;;-0.40;99.90;;;;;;6188805;23;20223;-82
2023/11/23 03:19:00;;;;;;;4.13;3.58;;;-0.40;99.90;;;;;;6201825;23;20185;-82
2023/11/23 03:21:27;;;;;;;5.18;4.32;;;-0.40;99.90;;;;;;6201919;23;20176;-80
2023/11/23 03:23:56;;;;;;;4.70;4.30;;;-0.40;99.90;;;;;;6187787;23;20192;-81
2023/11/23 03:26:23;;;;;;;5.47;4.93;;;-0.30;99.90;;;;;;6188277;23;20212;-82
2023/11/23 03:28:50;;;;;;;3.35;3.20;;;-0.30;99.90;;;;;;6186729;23;20229;-83
2023/11/23 03:31:17;;;;;;;4.70;3.45;;;-0.20;99.90;;;;;;6188208;23;20271;-82
2023/11/23 03:33:44;;;;;;;9.20;6.50;;;-0.20;99.90;;;;;;6187420;23;20185;-84
2023/11/23 03:36:11;;;;;;;3.17;2.70;;;-0.20;99.90;;;;;;6187249;23;20201;-83
2023/11/23 03:38:38;;;;;;;1.17;1.17;;;-0.20;99.90;;;;;;6188860;23;20325;-83
2023/11/23 03:41:05;;;;;;;6.18;5.53;;;-0.20;99.90;;;;;;6162089;23;20204;-85
2023/11/23 03:43:32;;;;;;;8.30;7.57;;;-0.10;99.90;;;;;;6188527;23;20208;-83
2023/11/23 03:45:59;;;;;;;5.30;4.97;;;-0.10;99.90;;;;;;6189217;23;20185;-85
2023/11/23 03:48:26;;;;;;;7.82;7.07;;;-0.10;99.90;;;;;;6187682;23;20185;-82
2023/11/23 03:50:53;;;;;;;5.82;4.70;;;0.10;99.90;;;;;;6188421;23;20185;-82
2023/11/23 03:53:21;;;;;;;1.92;1.83;;;-0.10;99.90;;;;;;6187274;23;20505;-83
2023/11/23 03:55:48;;;;;;;2.50;2.35;;;0.00;99.90;;;;;;6188685;23;20220;-84
2023/11/23 03:58:15;;;;;;;7.53;6.20;;;-0.10;99.90;;;;;;6162108;23;20248;-84
2023/11/23 04:00:43;;;;;;;4.15;3.85;;;0.00;99.90;;;;;;6191006;23;20341;-83
2023/11/23 04:03:10;;;;;;;5.32;4.07;;;0.00;99.90;;;;;;6187850;23;20248;-83
2023/11/23 04:05:37;;;;;;;2.97;2.83;;;0.10;99.90;;;;;;6186901;23;20188;-83
2023/11/23 04:08:05;;;;;;;3.25;3.05;;;0.10;99.90;;;;;;6187838;23;20267;-82
2023/11/23 04:10:32;;;;;;;9.77;5.28;;;0.10;99.90;;;;;;6188218;23;20185;-82
2023/11/23 04:13:00;;;;;;;3.75;3.47;;;0.20;99.90;;;;;;6187616;23;20204;-84
2023/11/23 04:15:27;;;;;;;5.45;4.95;;;0.20;99.90;;;;;;6187705;23;20200;-85
2023/11/23 04:17:54;;;;;;;5.78;4.93;;;0.20;99.90;;;;;;6188579;23;20524;-84
2023/11/23 04:20:22;;;;;;;3.72;3.42;;;0.20;99.90;;;;;;6189117;23;20489;-84
2023/11/23 04:22:49;;;;;;;3.47;3.28;;;0.20;99.90;;;;;;6188344;23;20204;-82
2023/11/23 04:25:16;;;;;;;2.65;2.42;;;0.30;99.90;;;;;;6189636;23;20208;-81
2023/11/23 04:27:43;;;;;;;2.00;1.90;;;0.30;99.90;;;;;;6189277;23;20208;-81
2023/11/23 04:30:11;;;;;;;1.98;1.88;;;0.30;99.90;;;;;;6189136;23;20181;-83
2023/11/23 04:32:40;;;;;;;1.63;1.63;;;0.40;99.90;;;;;;6189934;23;20244;-81
2023/11/23 04:35:10;;;;;;;1.67;1.67;;;0.50;99.90;;;;;;6189891;23;20197;-86
2023/11/23 04:37:38;;;;;;;2.85;2.63;;;0.50;99.90;;;;;;6189750;23;20208;-81
2023/11/23 04:40:08;;;;;;;3.72;3.28;;;0.50;99.90;;;;;;6190565;23;20252;-84
2023/11/23 04:42:35;;;;;;;2.78;2.67;;;0.50;99.90;;;;;;6189312;23;20180;-81
2023/11/23 04:45:03;;;;;;;1.90;1.80;;;0.50;99.90;;;;;;6189635;23;20192;-84
2023/11/23 04:47:30;;;;;;;4.38;4.05;;;0.60;99.90;;;;;;6187905;23;20591;-82
2023/11/23 04:49:57;;;;;;;2.92;2.75;;;0.60;99.90;;;;;;6189647;23;20446;-83
2023/11/23 04:52:24;;;;;;;4.35;4.05;;;0.60;99.90;;;;;;6189053;23;20185;-82
2023/11/23 04:54:51;;;;;;;6.43;5.82;;;0.60;99.90;;;;;;6189154;23;20260;-83
2023/11/23 04:57:17;;;;;;;4.25;2.50;;;0.60;99.90;;;;;;6189141;23;20243;-85
2023/11/23 04:59:45;;;;;;;4.07;3.72;;;0.60;99.90;;;;;;6188170;23;20220;-82
2023/11/23 05:02:12;;;;;;;2.53;2.42;;;0.70;99.90;;;;;;6189832;23;20181;-82
2023/11/23 05:04:39;;;;;;;3.05;2.85;;;0.60;99.90;;;;;;6189506;23;20181;-85
2023/11/23 05:07:06;;;;;;;7.43;4.70;;;0.70;99.90;;;;;;6189275;23;20208;-81
2023/11/23 05:09:33;;;;;;;1.70;1.70;;;0.70;99.90;;;;;;6187728;23;20189;-84
2023/11/23 05:12:00;;;;;;;1.88;1.52;;;0.80;99.90;;;;;;6190212;23;20180;-84
2023/11/23 05:14:27;;;;;;;4.43;3.67;;;0.90;99.90;;;;;;6191495;23;20188;-81
2023/11/23 05:16:56;;;;;;;3.13;2.67;;;1.00;99.90;;;;;;6194716;23;20177;-85
2023/11/23 05:19:23;;;;;;;2.53;2.42;;;1.00;99.90;;;;;;6213213;23;20199;-85
2023/11/23 05:22:07;;;;;;;4.07;3.72;;;1.10;99.90;;;;;;6212551;23;20153;-89
2023/11/23 05:24:35;;;;;;;3.65;3.50;;;1.10;99.90;;;;;;6142950;23;20565;-87
2023/11/23 05:27:03;;;;;;;1.80;1.77;;;1.20;99.90;;;;;;6138315;23;20205;-83
2023/11/23 05:29:33;;;;;;;1.63;1.52;;;1.20;99.90;;;;;;6140035;23;20261;-89
2023/11/23 05:32:02;;;;;;;6.25;3.88;;;1.10;99.90;;;;;;6136088;23;20197;-83
2023/11/23 05:34:30;;;;;;;3.42;3.22;;;1.30;99.90;;;;;;6133969;23;20186;-87
2023/11/23 05:37:00;;;;;;;1.33;1.33;;;1.30;99.90;;;;;;6136443;23;20209;-86
2023/11/23 05:39:30;;;;;;;2.70;2.50;;;1.50;99.90;;;;;;6134615;23;20364;-85
2023/11/23 05:42:00;;;;;;;2.88;2.78;;;1.40;99.90;;;;;;6135279;23;20479;-87
2023/11/23 05:44:28;;;;;;;2.78;2.67;;;1.40;99.90;;;;;;6133621;23;20554;-85
2023/11/23 05:47:00;;;;;;;5.47;4.93;;;1.50;99.90;;;;;;6112924;23;20167;-89
2023/11/23 05:49:38;;;;;;;2.40;2.30;;;1.40;99.90;;;;;;6136977;23;20225;-88
2023/11/23 05:52:08;;;;;;;2.70;2.50;;;1.50;99.90;;;;;;6135537;23;20493;-83
2023/11/23 05:54:44;;;;;;;2.95;2.85;;;1.50;99.90;;;;;;6135537;23;20184;-90
2023/11/23 05:57:15;;;;;;;2.25;2.15;;;1.50;99.90;;;;;;6137564;23;20166;-85
2023/11/23 05:59:42;;;;;;;9.88;2.92;;;1.50;99.90;;;;;;6137947;23;20233;-84
2023/11/23 06:02:10;;;;;;;2.78;2.67;;;1.50;99.90;;;;;;6135346;23;20186;-89
2023/11/23 06:04:42;;;;;;;2.78;2.15;;;1.50;99.90;;;;;;6134977;23;20288;-86
2023/11/23 06:07:15;;;;;;;11.15;6.63;;;1.50;99.90;;;;;;6135466;23;20241;-84
2023/11/23 06:09:43;;;;;;;3.58;3.42;;;1.50;99.90;;;;;;6113067;23;20167;-83
2023/11/23 06:12:11;;;;;;;2.00;1.80;;;1.60;99.90;;;;;;6110769;23;20179;-85
2023/11/23 06:14:43;;;;;;;1.75;1.70;;;1.60;99.90;;;;;;6135578;23;20170;-84
2023/11/23 06:17:14;;;;;;;3.88;3.65;;;1.50;99.90;;;;;;6138903;23;20162;-82
2023/11/23 06:19:44;;;;;;;3.25;3.15;;;1.60;99.90;;;;;;6139529;23;20233;-88
2023/11/23 06:22:14;;;;;;;2.20;2.10;;;1.70;99.90;;;;;;6138485;23;20174;-88
2023/11/23 06:24:42;;;;;;;7.43;6.78;;;1.70;99.90;;;;;;6157226;23;20197;-81
2023/11/23 06:27:10;;;;;;;4.95;4.60;;;1.70;99.90;;;;;;6165109;23;20201;-82
2023/11/23 06:29:37;;;;;;;2.85;2.65;;;1.80;99.90;;;;;;6136933;23;20201;-83
2023/11/23 06:32:06;;;;;;;4.22;3.97;;;1.80;99.90;;;;;;6137026;23;20257;-83
2023/11/23 06:34:34;;;;;;;2.30;2.20;;;1.80;99.90;;;;;;6137021;23;20170;-81
2023/11/23 06:37:06;;;;;;;18.73;7.75;;;1.80;99.90;;;;;;6165474;23;20192;-82
2023/11/23 06:39:43;;;;;;;2.55;2.45;;;1.80;99.90;;;;;;6130234;23;20193;-81
2023/11/23 06:42:10;;;;;;;4.72;4.32;;;1.90;99.90;;;;;;6155689;23;20209;-83
2023/11/23 06:44:40;;;;;;;5.53;5.22;;;1.90;99.90;;;;;;6176676;23;20173;-81
2023/11/23 06:47:09;;;;;;;4.18;3.90;;;1.90;99.90;;;;;;6174982;23;20174;-83
2023/11/23 06:49:41;;;;;;;2.35;2.25;;;2.00;99.90;;;;;;6137343;23;20174;-82
2023/11/23 06:52:09;;;;;;;3.00;2.80;;;2.10;99.90;;;;;;6115201;23;20197;-82
2023/11/23 06:54:40;;;;;;;2.53;2.33;;;2.10;99.90;;;;;;6140691;23;20161;-82
2023/11/23 06:57:08;;;;;;;4.03;3.35;;;2.00;99.90;;;;;;6139204;23;20453;-82
2023/11/23 06:59:44;;;;;;;1.05;1.05;;;1.90;99.90;;;;;;6165912;23;20170;-81
2023/11/23 07:02:15;;;;;;;1.17;1.13;;;2.10;99.90;;;;;;6167917;23;20164;-82
2023/11/23 07:04:46;;;;;;;2.10;2.00;;;2.10;99.90;;;;;;6167273;23;20258;-84
2023/11/23 07:07:27;;;;;;;3.03;2.72;;;2.10;99.90;;;;;;6145612;23;20178;-83
2023/11/23 07:10:06;;;;;;;2.10;1.90;;;2.00;99.90;;;;;;6181323;23;20177;-86
2023/11/23 07:12:37;;;;;;;2.88;2.67;;;2.20;99.90;;;;;;6157613;23;20230;-92
2023/11/23 07:15:09;;;;;;;2.15;2.05;;;2.30;99.90;;;;;;6179969;23;20170;-86
2023/11/23 07:17:39;;;;;;;1.95;1.90;;;2.30;99.90;;;;;;6148349;23;20178;-86
2023/11/23 07:20:18;;;;;;;1.63;1.60;;;2.30;99.90;;;;;;6142551;23;20273;-89
2023/11/23 07:22:51;;;;;;;2.92;2.72;;;2.30;99.90;;;;;;6131338;23;20170;-87
2023/11/23 07:25:22;;;;;;;0.60;0.60;;;2.40;99.90;;;;;;6148493;23;21288;-87
2023/11/23 07:27:50;;;;;;;2.10;2.05;;;2.50;99.90;;;;;;6177828;23;20181;-85
2023/11/23 07:38:28;;;;;;;1.13;1.13;;;2.50;99.90;;;;;;6153498;23;20193;-87
2023/11/23 07:40:57;;;;;;;3.00;2.85;;;2.60;99.90;;;;;;6164692;23;20193;-85
2023/11/23 07:43:27;;;;;;;1.83;1.73;;;2.60;99.90;;;;;;6205030;23;20172;-87
2023/11/23 07:45:55;;;;;;;1.58;1.52;;;2.60;99.90;;;;;;6199854;23;20167;-87
2023/11/23 07:48:24;;;;;;;1.40;1.40;;;2.60;99.90;;;;;;6199128;23;20169;-86
2023/11/23 07:50:53;;;;;;;0.70;0.70;;;2.70;99.90;;;;;;6168589;23;20197;-86
2023/11/23 07:53:20;;;;;;;2.15;2.03;;;2.60;99.90;;;;;;6197169;23;20220;-88
2023/11/23 07:55:49;;;;;;;1.65;1.55;;;2.70;99.90;;;;;;6174016;23;20212;-88
2023/11/23 07:58:16;;;;;;;5.63;4.07;;;2.90;99.90;;;;;;6174612;23;20264;-86
2023/11/23 08:00:45;;;;;;;1.90;1.80;;;2.80;99.90;;;;;;6201084;23;20165;-84
2023/11/23 08:03:18;;;;;;;2.00;1.85;;;2.80;99.90;;;;;;6203096;23;20185;-85
2023/11/23 08:05:49;;;;;;;1.10;1.10;;;2.80;99.90;;;;;;6201477;23;20217;-87
2023/11/23 08:08:17;;;;;;;2.22;2.10;;;2.90;99.90;;;;;;6203129;23;20191;-87
2023/11/23 08:10:45;;;;;;;2.08;1.98;;;2.90;99.90;;;;;;6175596;23;20260;-86
2023/11/23 08:13:20;;;;;;;1.08;0.98;;;2.90;99.90;;;;;;6200444;23;20173;-86
2023/11/23 08:15:51;;;;;;;1.50;1.42;;;2.90;99.90;;;;;;6196956;23;20192;-87
2023/11/23 08:18:20;;;;;;;2.55;2.45;;;3.00;99.90;;;;;;6199128;23;20165;-85
2023/11/23 08:20:58;;;;;;;3.33;2.90;;;3.10;99.90;;;;;;6199070;23;20180;-85
2023/11/23 08:23:28;;;;;;;1.67;1.58;;;3.10;99.90;;;;;;6197519;23;20177;-84
2023/11/23 08:26:06;;;;;;;3.53;3.33;;;3.10;99.90;;;;;;6196889;23;20174;-85
2023/11/23 08:28:35;;;;;;;3.05;2.95;;;3.20;99.90;;;;;;6198490;23;20157;-85
2023/11/23 08:31:02;;;;;;;3.10;2.90;;;3.30;99.90;;;;;;6197048;23;20177;-86
2023/11/23 08:33:37;;;;;;;1.65;1.60;;;3.40;99.90;;;;;;6197913;23;20481;-85
2023/11/23 08:36:09;;;;;;;2.00;1.90;;;3.40;99.90;;;;;;6171837;23;20582;-86
2023/11/23 08:38:41;;;;;;;2.67;1.60;;;3.30;99.90;;;;;;6172142;23;20214;-84
2023/11/23 08:41:12;;;;;;;3.03;2.88;;;3.60;99.90;;;;;;6195968;23;20197;-83
2023/11/23 08:43:40;;;;;;;1.10;1.08;;;3.50;99.90;;;;;;6198104;23;20239;-83
2023/11/23 08:46:08;;;;;;;1.38;1.27;;;3.70;99.90;;;;;;6145517;23;20220;-84
2023/11/23 08:48:36;;;;;;;1.50;1.40;;;3.60;99.90;;;;;;6197282;23;20177;-86
2023/11/23 08:51:06;;;;;;;2.15;2.05;;;3.50;99.90;;;;;;6194522;23;20185;-86
2023/11/23 08:53:34;;;;;;;1.77;1.67;;;3.50;99.90;;;;;;6196623;23;20177;-85
2023/11/23 08:56:06;;;;;;;2.00;1.90;;;3.60;99.90;;;;;;6193573;23;20252;-83
2023/11/23 08:58:33;;;;;;;0.70;0.70;;;3.70;99.90;;;;;;6195682;23;20173;-87
2023/11/23 09:01:00;;;;;;;3.05;2.85;;;3.60;99.90;;;;;;6145189;23;20504;-85
2023/11/23 09:03:37;;;;;;;0.95;0.95;;;3.90;99.90;;;;;;6172032;23;20169;-86
2023/11/23 09:06:05;;;;;;;3.13;2.83;;;3.80;99.90;;;;;;6170551;23;20224;-84
2023/11/23 09:08:35;;;;;;;1.05;1.05;;;4.00;99.90;;;;;;6171127;23;20168;-86
2023/11/23 09:11:05;;;;;;;2.47;2.35;;;4.10;99.90;;;;;;6195876;23;20181;-85
2023/11/23 09:13:43;;;;;;;1.33;1.33;;;4.00;99.90;;;;;;6171580;23;20180;-88
2023/11/23 09:16:13;;;;;;;0.75;0.75;;;4.10;99.90;;;;;;6170194;23;20227;-85
2023/11/23 09:18:43;;;;;;;2.25;2.15;;;3.90;99.90;;;;;;6195064;23;20165;-82
2023/11/23 09:21:10;;;;;;;2.28;2.17;;;3.90;99.90;;;;;;6195979;23;20162;-83
2023/11/23 09:23:38;;;;;;;4.30;3.40;;;4.30;99.90;;;;;;6193763;23;20213;-88
2023/11/23 09:26:07;;;;;;;0.95;0.95;;;4.40;99.90;;;;;;6144347;23;20196;-84
2023/11/23 09:28:36;;;;;;;1.95;1.85;;;4.80;99.90;;;;;;6194704;23;20169;-84
2023/11/23 09:31:08;;;;;;;2.30;0.95;;;4.90;99.90;;;;;;6167524;23;20188;-86
2023/11/23 09:33:36;;;;;;;2.30;1.15;;;5.20;99.90;;;;;;6195565;23;20189;-84
2023/11/23 09:36:06;;;;;;;0.80;0.80;;;5.20;99.90;;;;;;6194661;23;20211;-85
2023/11/23 09:38:35;;;;;;;1.05;1.05;;;5.20;99.90;;;;;;6194900;23;20522;-87
2023/11/23 09:41:11;;;;;;;1.77;1.67;;;5.40;99.90;;;;;;6169262;23;20490;-85
2023/11/23 09:43:38;;;;;;;4.78;2.67;;;5.30;99.90;;;;;;6169229;23;20195;-86
2023/11/23 09:46:06;;;;;;;3.78;3.58;;;5.50;99.90;;;;;;6197223;23;20177;-86
2023/11/23 09:48:38;;;;;;;1.05;1.05;;;5.40;99.90;;;;;;6195139;23;20174;-87
2023/11/23 09:51:09;;;;;;;1.00;1.00;;;5.40;99.90;;;;;;6194233;23;20532;-83
2023/11/23 09:53:37;;;;;;;2.13;2.03;;;5.30;99.90;;;;;;6195953;23;20485;-85
2023/11/23 09:56:08;;;;;;;0.75;0.75;;;5.60;99.90;;;;;;6197606;23;20219;-85
2023/11/23 09:58:41;;;;;;;1.35;1.35;;;5.50;99.90;;;;;;6196924;23;20173;-83
2023/11/23 10:01:10;;;;;;;0.90;0.90;;;5.70;99.90;;;;;;6172621;23;20185;-84
2023/11/23 10:03:43;;;;;;;0.50;0.50;;;5.80;99.90;;;;;;6198093;23;20621;-81
2023/11/23 10:06:14;;;;;;;0.60;0.60;;;5.90;99.90;;;;;;6170244;23;20184;-86
2023/11/23 10:08:43;;;;;;;0.50;0.50;;;5.80;99.90;;;;;;6195750;23;20252;-85
2023/11/23 10:11:13;;;;;;;0.85;0.85;;;6.00;99.90;;;;;;6170968;23;20180;-85
2023/11/23 10:13:46;;;;;;;0.60;0.60;;;6.00;99.90;;;;;;6197873;23;20493;-85
2023/11/23 10:16:13;;;;;;;0.60;0.60;;;6.00;99.90;;;;;;6201136;23;20493;-82
2023/11/23 10:18:46;;;;;;;0.80;0.80;;;6.20;99.90;;;;;;6170871;23;20173;-82
2023/11/23 10:21:14;;;;;;;0.60;0.60;;;6.30;99.90;;;;;;6167599;23;20176;-86
2023/11/23 10:23:45;;;;;;;0.60;0.60;;;6.50;99.90;;;;;;6192015;23;20500;-84
2023/11/23 10:26:16;;;;;;;0.80;0.80;;;6.50;99.90;;;;;;6192381;23;20224;-84
2023/11/23 10:28:49;;;;;;;0.88;0.88;;;6.50;99.90;;;;;;6169997;23;20177;-85
2023/11/23 10:31:20;;;;;;;0.50;0.50;;;6.60;99.90;;;;;;6196924;23;20175;-86
2023/11/23 10:33:50;;;;;;;0.80;0.80;;;6.60;99.90;;;;;;6197189;23;20256;-89
2023/11/23 10:36:27;;;;;;;0.60;0.60;;;6.40;99.90;;;;;;6171303;23;20254;-85
2023/11/23 10:39:12;;;;;;;0.60;0.60;;;6.60;99.90;;;;;;6192657;23;20176;-87
2023/11/23 10:41:44;;;;;;;0.60;0.60;;;6.80;99.90;;;;;;6171132;23;20180;-88
2023/11/23 10:44:15;;;;;;;0.90;0.90;;;7.10;99.90;;;;;;6193788;23;20172;-90
2023/11/23 10:46:44;;;;;;;0.60;0.60;;;7.00;99.90;;;;;;6193658;23;20203;-85
2023/11/23 10:49:14;;;;;;;0.95;0.95;;;7.00;99.90;;;;;;6197598;23;20181;-85
2023/11/23 10:51:43;;;;;;;0.77;0.77;;;6.90;99.90;;;;;;6196007;23;20687;-86
2023/11/23 10:54:12;;;;;;;0.60;0.60;;;6.80;99.90;;;;;;6171195;23;20173;-85
2023/11/23 10:56:43;;;;;;;0.50;0.50;;;6.90;99.90;;;;;;6170468;23;20192;-87
2023/11/23 10:59:18;;;;;;;0.90;0.90;;;6.90;99.90;;;;;;6194585;23;20369;-82
2023/11/23 11:01:52;;;;;;;0.80;0.80;;;7.10;99.90;;;;;;6174397;23;20176;-82
2023/11/23 11:04:29;;;;;;;0.60;0.60;;;7.30;99.90;;;;;;6194285;23;20184;-86
2023/11/23 11:07:05;;;;;;;1.23;1.20;;;7.30;99.90;;;;;;6178244;23;20157;-86
2023/11/23 11:09:59;;;;;;;0.50;0.50;;;7.60;99.90;;;;;;6182475;23;20173;-84
2023/11/23 11:12:36;;;;;;;1.65;1.55;;;7.80;99.90;;;;;;6181653;23;20157;-87
2023/11/23 11:15:07;;;;;;;0.60;0.60;;;7.70;99.90;;;;;;6210763;23;20227;-83
2023/11/23 11:17:39;;;;;;;0.60;0.60;;;7.70;99.90;;;;;;6207972;23;20184;-87
2023/11/23 11:20:10;;;;;;;0.90;0.90;;;7.70;99.90;;;;;;6181241;23;20174;-85
2023/11/23 11:22:37;;;;;;;0.50;0.50;;;7.60;99.90;;;;;;6197287;23;20195;-88
2023/11/23 11:25:07;;;;;;;1.30;1.25;;;7.50;99.90;;;;;;6197070;23;20188;-82
2023/11/23 11:27:40;;;;;;;0.70;0.70;;;7.60;99.90;;;;;;6172695;23;20233;-87
2023/11/23 11:30:14;;;;;;;0.98;0.98;;;7.70;99.90;;;;;;6147269;23;20149;-85
2023/11/23 11:32:42;;;;;;;2.70;2.60;;;7.50;99.90;;;;;;6197078;23;20196;-84
2023/11/23 11:35:18;;;;;;;0.50;0.50;;;7.40;99.90;;;;;;6195707;23;20230;-84
2023/11/23 11:37:48;;;;;;;0.60;0.60;;;7.40;99.90;;;;;;6170756;23;20252;-86
2023/11/23 11:40:21;;;;;;;0.88;0.88;;;7.30;99.90;;;;;;6119872;23;20188;-83
2023/11/23 11:42:55;;;;;;;0.60;0.60;;;7.30;99.90;;;;;;6171100;23;20204;-84
2023/11/23 11:45:35;;;;;;;1.23;1.23;;;7.40;99.90;;;;;;6193711;23;20207;-85
2023/11/23 11:48:05;;;;;;;1.38;0.80;;;7.30;99.90;;;;;;6192785;23;20185;-86
2023/11/23 11:50:35;;;;;;;1.23;1.23;;;7.30;99.90;;;;;;6196504;23;20185;-86
2023/11/23 11:53:10;;;;;;;0.63;0.63;;;7.30;99.90;;;;;;6194496;23;20480;-90
2023/11/23 11:55:49;;;;;;;1.00;1.00;;;7.30;99.90;;;;;;6169846;23;20173;-84
2023/11/23 11:58:18;;;;;;;0.80;0.80;;;7.20;99.90;;;;;;6193737;23;20208;-88
2023/11/23 12:00:47;;;;;;;0.90;0.90;;;7.20;99.90;;;;;;6191608;23;20517;-84
2023/11/23 12:03:18;;;;;;;1.15;1.15;;;7.10;99.90;;;;;;6192873;23;20229;-83
2023/11/23 12:05:45;;;;;;;0.70;0.70;;;7.10;99.90;;;;;;6200774;23;20219;-85
2023/11/23 12:08:14;;;;;;;5.90;2.72;;;7.10;99.90;;;;;;6201532;23;20176;-83
2023/11/23 12:10:56;;;;;;;0.98;0.98;;;7.10;99.90;;;;;;6202531;23;20153;-82
2023/11/23 12:13:25;;;;;;;0.60;0.60;;;6.80;99.90;;;;;;6197255;23;20185;-84
2023/11/23 12:15:56;;;;;;;0.70;0.70;;;6.70;99.90;;;;;;6170721;23;20365;-84
2023/11/23 12:18:36;;;;;;;1.10;1.05;;;6.50;99.90;;;;;;6168040;23;20192;-83
2023/11/23 12:21:13;;;;;;;0.70;0.70;;;6.40;99.90;;;;;;6194133;23;20165;-86
2023/11/23 12:23:41;;;;;;;1.13;1.13;;;6.30;99.90;;;;;;6193963;23;20449;-88
2023/11/23 12:26:10;;;;;;;0.60;0.60;;;6.20;99.90;;;;;;6195191;23;20208;-86
2023/11/23 12:28:37;;;;;;;0.80;0.80;;;6.20;99.90;;;;;;6168202;23;20169;-84
2023/11/23 12:31:10;;;;;;;2.55;2.35;;;6.20;99.90;;;;;;6193183;23;20173;-87
2023/11/23 12:33:39;;;;;;;1.38;1.38;;;6.10;99.90;;;;;;6193604;23;20212;-85
2023/11/23 12:36:08;;;;;;;0.93;0.93;;;6.10;99.90;;;;;;6195130;23;20204;-85
2023/11/23 12:38:36;;;;;;;1.13;1.13;;;6.00;99.90;;;;;;6167929;23;20330;-89
2023/11/23 12:41:05;;;;;;;0.60;0.60;;;6.00;99.90;;;;;;6196673;23;20200;-85
2023/11/23 12:43:42;;;;;;;1.05;1.05;;;6.00;99.90;;;;;;6194520;23;20180;-85
2023/11/23 12:46:13;;;;;;;1.27;1.27;;;6.00;99.90;;;;;;6197001;23;20169;-85
2023/11/23 12:48:40;;;;;;;0.88;0.88;;;6.00;99.90;;;;;;6173006;23;20213;-86
2023/11/23 12:51:07;;;;;;;1.02;1.00;;;6.00;99.90;;;;;;6171714;23;20177;-88
2023/11/23 12:53:37;;;;;;;0.70;0.70;;;5.90;99.90;;;;;;6172690;23;20184;-84
2023/11/23 12:56:05;;;;;;;0.90;0.90;;;6.00;99.90;;;;;;6201908;23;20244;-82
2023/11/23 12:58:33;;;;;;;3.38;3.22;;;5.80;99.90;;;;;;6199785;23;20185;-85
2023/11/23 13:01:00;;;;;;;0.98;0.98;;;5.70;99.90;;;;;;6175899;23;20212;-83
2023/11/23 13:03:37;;;;;;;1.13;1.13;;;5.70;99.90;;;;;;6179983;23;20645;-86
2023/11/23 13:06:12;;;;;;;0.90;0.90;;;5.70;99.90;;;;;;6154501;23;20161;-86
2023/11/23 13:08:42;;;;;;;3.42;3.22;;;5.70;99.90;;;;;;6173585;23;20181;-84
2023/11/23 13:11:13;;;;;;;1.05;1.05;;;5.70;99.90;;;;;;6198866;23;20177;-89
2023/11/23 13:13:43;;;;;;;1.00;1.00;;;5.60;99.90;;;;;;6146928;23;20200;-88